Time;durP1;ratioP1;P1;durP2;ratioP2;P2;SDS_P1;SDS_P2;PMS_P1;PMS_P2;Temp;Humidity;BMP_temperature;BMP_pressure;BME280_temperature;BME280_humidity;BME280_pressure;Samples;Min_cycle;Max_cycle;Signal;HPM_P1;HPM_P2
2023/04/01 07:02:09;;;;;;;0.60;0.60;;;10.40;99.90;13.30;99467.00;;;;6288821;22;1287979;-72
2023/04/01 07:04:44;;;;;;;0.83;0.83;;;10.70;99.90;13.40;99461.00;;;;6308680;22;20493;-73
2023/04/01 07:07:31;;;;;;;1.07;1.07;;;10.90;99.90;13.20;99459.00;;;;6313636;22;20134;-71
2023/04/01 07:09:59;;;;;;;1.23;1.23;;;10.80;99.90;12.60;99458.00;;;;6340865;22;20150;-72
2023/04/01 07:12:31;;;;;;;0.80;0.80;;;10.60;99.90;13.20;99469.00;;;;6287564;22;20212;-72
2023/04/01 07:15:20;;;;;;;1.13;1.13;;;10.70;99.90;13.20;99432.00;;;;6340783;22;20165;-72
2023/04/01 07:18:10;;;;;;;0.70;0.70;;;10.70;99.90;13.20;99477.00;;;;6340826;22;20150;-72
2023/04/01 07:20:40;;;;;;;0.83;0.83;;;10.70;99.90;13.00;99475.00;;;;6311490;22;20179;-73
2023/04/01 07:23:28;;;;;;;1.00;0.93;;;10.80;99.90;12.90;99467.00;;;;6313392;22;20193;-73
2023/04/01 07:26:06;;;;;;;0.60;0.60;;;10.90;99.90;13.00;99468.00;;;;6313130;22;20156;-73
2023/04/01 07:28:35;;;;;;;1.63;1.53;;;10.70;99.90;12.80;99488.00;;;;6313099;22;20531;-73
2023/04/01 07:31:37;;;;;;;1.00;1.00;;;10.80;99.90;13.10;99488.00;;;;6312880;22;20155;-72
2023/04/01 07:34:27;;;;;;;1.20;1.20;;;10.90;99.90;12.60;99500.00;;;;6339636;22;20167;-72
2023/04/01 07:37:10;;;;;;;0.97;0.97;;;10.70;99.90;13.10;99504.00;;;;6312828;22;20204;-72
2023/04/01 07:40:14;;;;;;;2.03;1.93;;;10.80;99.90;13.30;99500.00;;;;6312658;22;20199;-72
2023/04/01 07:43:33;;;;;;;0.80;0.80;;;10.80;99.90;13.70;99510.00;;;;6339253;22;20159;-72
2023/04/01 07:46:30;;;;;;;0.80;0.80;;;11.00;99.90;13.40;99497.00;;;;6340079;22;20195;-72
2023/04/01 07:49:30;;;;;;;1.10;1.10;;;11.10;99.90;13.00;99498.00;;;;6339605;22;20556;-72
2023/04/01 07:52:50;;;;;;;0.70;0.70;;;11.00;99.90;13.30;99518.00;;;;6331938;22;20182;-72
2023/04/01 07:55:50;;;;;;;1.40;1.30;;;10.90;99.90;13.40;99518.00;;;;6340300;22;20132;-72
2023/04/01 07:59:02;;;;;;;0.90;0.90;;;11.00;99.90;12.30;99524.00;;;;6254557;22;20603;-71
2023/04/01 08:01:46;;;;;;;0.90;0.90;;;10.70;99.90;13.40;99535.00;;;;6291992;22;20176;-72
2023/04/01 08:04:56;;;;;;;1.23;1.13;;;10.90;99.90;13.10;99547.00;;;;6306979;22;20243;-72
2023/04/01 08:08:06;;;;;;;0.90;0.90;;;11.00;99.90;11.70;99547.00;;;;6307776;22;20610;-71
2023/04/01 08:10:51;;;;;;;0.93;0.93;;;10.40;99.90;12.30;99556.00;;;;6281511;22;20169;-72
2023/04/01 08:13:36;;;;;;;1.00;1.00;;;10.40;99.90;12.90;99565.00;;;;6306839;22;20166;-71
2023/04/01 08:16:43;;;;;;;0.70;0.70;;;10.60;99.90;12.90;99513.00;;;;6308005;22;20482;-73
2023/04/01 08:19:42;;;;;;;0.70;0.70;;;10.60;99.90;13.40;99522.00;;;;6309055;22;20146;-73
2023/04/01 08:22:30;;;;;;;3.63;1.50;;;11.00;99.90;13.00;99572.00;;;;6308498;22;20145;-73
2023/04/01 08:25:07;;;;;;;0.87;0.87;;;11.00;99.90;13.70;99536.00;;;;6307068;22;20588;-73
2023/04/01 08:28:20;;;;;;;0.90;0.90;;;11.10;99.90;13.50;99573.00;;;;6307320;22;20143;-72
2023/04/01 08:31:12;;;;;;;0.80;0.80;;;11.00;99.90;13.50;99542.00;;;;6278227;22;20162;-73
2023/04/01 08:33:40;;;;;;;1.00;1.00;;;11.10;99.90;13.20;99582.00;;;;6305307;22;20650;-73
2023/04/01 08:36:23;;;;;;;0.80;0.80;;;11.20;99.90;13.60;99555.00;;;;6305434;22;20659;-73
2023/04/01 08:38:57;;;;;;;1.10;1.10;;;11.20;99.90;14.00;99589.00;;;;6306490;22;20151;-73
2023/04/01 08:42:00;;;;;;;0.90;0.90;;;11.40;99.90;13.90;99591.00;;;;6305896;22;20156;-72
2023/04/01 08:45:09;;;;;;;0.90;0.90;;;11.40;99.90;13.50;99561.00;;;;6306655;22;20161;-73
2023/04/01 08:47:57;;;;;;;0.97;0.97;;;11.20;99.90;13.70;99598.00;;;;6303838;22;20616;-73
2023/04/01 08:50:57;;;;;;;0.80;0.80;;;11.40;99.90;13.50;99602.00;;;;6303933;22;20222;-73
2023/04/01 08:54:17;;;;;;;1.13;1.13;;;11.40;99.90;13.60;99607.00;;;;6306876;22;20493;-72
2023/04/01 08:57:22;;;;;;;1.03;1.03;;;11.30;99.90;14.00;99611.00;;;;6204849;22;20163;-73
2023/04/01 09:00:22;;;;;;;1.40;1.30;;;11.40;99.90;13.60;99612.00;;;;6311526;22;20173;-73
2023/04/01 09:03:36;;;;;;;1.00;1.00;;;11.40;99.90;13.60;99615.00;;;;6310483;22;20495;-73
2023/04/01 09:06:31;;;;;;;1.00;1.00;;;11.40;99.90;13.60;99619.00;;;;6338492;22;20165;-74
2023/04/01 09:09:41;;;;;;;1.00;1.00;;;11.30;99.90;13.90;99621.00;;;;6311034;22;20648;-73
2023/04/01 09:12:44;;;;;;;0.87;0.87;;;11.40;99.90;13.90;99622.00;;;;6285435;22;20709;-71
2023/04/01 09:16:05;;;;;;;0.80;0.80;;;11.50;99.90;14.00;99627.00;;;;6338279;22;20211;-68
2023/04/01 09:18:57;;;;;;;0.90;0.90;;;11.50;99.90;14.10;99629.00;;;;6314203;22;20222;-68
2023/04/01 09:21:59;;;;;;;1.00;1.00;;;11.60;99.90;13.50;99590.00;;;;6309010;22;20166;-68
2023/04/01 09:25:28;;;;;;;0.80;0.80;;;11.40;99.90;13.90;99639.00;;;;6265653;22;20176;-77
2023/04/01 09:28:44;;;;;;;1.07;1.07;;;11.40;99.90;13.30;99636.00;;;;6259506;22;20163;-72
2023/04/01 09:31:50;;;;;;;1.00;1.00;;;11.40;99.90;14.10;99641.00;;;;6310072;22;20166;-73
2023/04/01 09:34:35;;;;;;;1.20;1.20;;;11.50;99.90;14.00;99634.00;;;;6338266;22;20150;-72
2023/04/01 09:37:28;;;;;;;0.97;0.97;;;11.50;99.90;14.40;99650.00;;;;6338499;22;20148;-73
2023/04/01 09:40:18;;;;;;;0.90;0.90;;;11.70;99.90;14.40;99647.00;;;;6309569;22;20163;-73
2023/04/01 09:43:07;;;;;;;1.00;1.00;;;11.70;99.90;13.80;99657.00;;;;6337824;22;20148;-72
2023/04/01 09:46:48;;;;;;;0.90;0.90;;;11.60;99.90;13.90;99651.00;;;;6284682;22;20589;-72
2023/04/01 09:49:45;;;;;;;1.67;1.57;;;11.50;99.90;14.10;99659.00;;;;6204062;22;20503;-72
2023/04/01 09:52:41;;;;;;;1.20;1.20;;;11.70;99.90;13.50;99663.00;;;;6338362;22;20182;-72
2023/04/01 09:55:36;;;;;;;0.90;0.90;;;11.50;99.90;13.50;99666.00;;;;6310099;22;20159;-72
2023/04/01 09:58:22;;;;;;;1.53;1.43;;;11.30;99.90;13.50;99665.00;;;;6338324;22;20223;-71
2023/04/01 10:01:12;;;;;;;0.97;0.97;;;11.40;99.90;14.10;99626.00;;;;6304678;22;20175;-71
2023/04/01 10:03:59;;;;;;;0.90;0.90;;;11.40;99.90;13.60;99667.00;;;;6306878;22;20604;-70
2023/04/01 10:07:01;;;;;;;1.87;1.80;;;11.40;99.90;14.40;99636.00;;;;6306607;22;20159;-71
2023/04/01 10:10:05;;;;;;;0.90;0.90;;;11.70;99.90;14.00;99676.00;;;;6306777;22;20160;-71
2023/04/01 10:12:58;;;;;;;0.90;0.90;;;11.80;99.90;14.30;99681.00;;;;6259364;22;20286;-71
2023/04/01 10:15:55;;;;;;;1.00;1.00;;;11.80;99.90;14.30;99679.00;;;;6306835;22;20220;-71
2023/04/01 10:18:44;;;;;;;0.90;0.90;;;11.80;99.90;14.60;99692.00;;;;6305504;22;20164;-71
2023/04/01 10:34:00;;;;;;;0.60;0.60;;;10.20;99.90;12.30;99745.00;;;;5069727;28;21166;-70
2023/04/01 10:36:40;;;;;;;0.50;0.50;;;10.40;99.90;12.90;99732.00;;;;5049593;28;20209;-68
2023/04/01 10:39:43;;;;;;;0.60;0.60;;;10.70;99.90;13.90;99722.00;;;;5050543;28;20207;-70
2023/04/01 10:42:59;;;;;;;0.93;0.93;;;11.00;99.90;13.70;99683.00;;;;5045036;28;20196;-69
2023/04/01 10:46:04;;;;;;;0.90;0.90;;;11.20;99.90;14.00;99719.00;;;;5043288;28;20205;-69
2023/04/01 10:48:55;;;;;;;1.00;1.00;;;11.40;99.90;13.90;99717.00;;;;5060690;28;20194;-69
2023/04/01 10:51:56;;;;;;;0.60;0.60;;;11.50;99.90;13.30;99686.00;;;;5057547;28;20217;-69
2023/04/01 10:55:03;;;;;;;0.80;0.80;;;11.20;99.90;13.70;99716.00;;;;5046138;28;20731;-69
2023/04/01 10:58:18;;;;;;;1.90;1.80;;;11.30;99.90;13.70;99711.00;;;;5047888;28;20209;-69
2023/04/01 11:01:56;;;;;;;0.80;0.80;;;11.30;99.90;13.90;99724.00;;;;5023894;28;20564;-69
2023/04/01 11:05:02;;;;;;;0.90;0.90;;;11.40;99.90;14.10;99723.00;;;;5078280;28;20189;-69
2023/04/01 11:08:21;;;;;;;1.00;1.00;;;11.50;99.90;13.60;99727.00;;;;5048898;28;20238;-69
2023/04/01 11:11:44;;;;;;;0.90;0.90;;;11.70;99.90;13.90;99723.00;;;;5048464;28;20179;-68
2023/04/01 11:14:57;;;;;;;0.87;0.83;;;11.70;99.90;14.50;99735.00;;;;5045305;28;20249;-68
2023/04/01 11:18:13;;;;;;;1.43;1.37;;;11.80;99.90;13.80;99726.00;;;;5046605;28;20214;-68
2023/04/01 11:21:31;;;;;;;0.80;0.80;;;11.50;99.90;14.50;99737.00;;;;5029325;28;20186;-68
2023/04/01 11:24:35;;;;;;;0.90;0.90;;;11.70;99.90;14.40;99699.00;;;;5048823;28;20182;-69
2023/04/01 11:27:15;;;;;;;1.00;1.00;;;11.90;99.90;14.30;99747.00;;;;5040042;28;20552;-68
2023/04/01 11:30:32;;;;;;;1.10;1.10;;;12.00;99.90;14.70;99748.00;;;;5054729;28;20193;-69
2023/04/01 11:33:26;;;;;;;1.00;1.00;;;12.00;99.90;14.80;99753.00;;;;5046097;28;20260;-68
2023/04/01 11:36:29;;;;;;;1.10;1.10;;;12.00;99.90;14.50;99759.00;;;;5039637;28;20197;-68
2023/04/01 11:39:32;;;;;;;1.20;1.20;;;12.00;99.90;14.70;99714.00;;;;5057986;28;20223;-68
2023/04/01 11:42:24;;;;;;;1.00;1.00;;;12.00;99.90;14.50;99774.00;;;;5058057;28;20186;-68
2023/04/01 11:45:39;;;;;;;1.27;1.27;;;12.00;99.90;14.70;99770.00;;;;5044342;28;20719;-68
2023/04/01 11:48:38;;;;;;;1.30;1.30;;;12.10;99.90;14.30;99783.00;;;;5044068;28;20178;-68
2023/04/01 11:51:37;;;;;;;1.00;1.00;;;12.10;99.90;14.50;99777.00;;;;5042695;28;20185;-68
2023/04/01 11:54:33;;;;;;;2.10;1.50;;;11.90;99.90;13.40;99776.00;;;;5042374;28;20261;-68
2023/04/01 11:57:28;;;;;;;0.90;0.90;;;11.60;99.90;14.00;99780.00;;;;5058851;28;20197;-67
2023/04/01 12:00:31;;;;;;;1.27;1.27;;;11.60;99.90;14.30;99786.00;;;;5060981;28;20532;-67
2023/04/01 12:03:27;;;;;;;0.90;0.90;;;11.90;99.90;14.20;99794.00;;;;5043393;28;20197;-67
2023/04/01 12:06:05;;;;;;;1.10;1.10;;;11.70;99.90;14.80;99794.00;;;;5043235;28;20606;-75
2023/04/01 12:09:30;;;;;;;1.00;1.00;;;12.00;99.90;14.60;99792.00;;;;5044546;28;20668;-70
2023/04/01 12:12:32;;;;;;;1.00;1.00;;;11.90;99.90;14.60;99796.00;;;;5044753;28;20262;-68
2023/04/01 12:15:20;;;;;;;1.20;1.20;;;12.00;99.90;14.10;99805.00;;;;5024219;28;20186;-68
2023/04/01 12:17:50;;;;;;;1.10;1.10;;;12.10;99.90;14.50;99813.00;;;;5040848;28;20325;-68
2023/04/01 12:20:58;;;;;;;0.90;0.90;;;12.00;99.90;14.00;99810.00;;;;5024370;28;20209;-68
2023/04/01 12:24:10;;;;;;;1.10;1.10;;;11.80;99.90;15.00;99821.00;;;;5041399;28;20249;-67
2023/04/01 12:27:07;;;;;;;1.20;1.20;;;12.10;99.90;15.10;99820.00;;;;5042428;28;20217;-68
2023/04/01 12:29:48;;;;;;;1.30;1.30;;;12.40;99.90;15.30;99831.00;;;;5041885;28;20195;-68
2023/04/01 12:33:02;;;;;;;1.33;1.33;;;12.40;99.90;15.10;99826.00;;;;5043329;28;20233;-68
2023/04/01 12:36:21;;;;;;;1.30;1.30;;;12.40;99.90;15.30;99811.00;;;;5044274;28;20202;-68
2023/04/01 12:39:39;;;;;;;1.23;1.23;;;12.40;99.90;14.10;99831.00;;;;5059509;28;20216;-69
2023/04/01 12:43:23;;;;;;;1.10;1.10;;;12.10;99.90;14.80;99832.00;;;;5023889;28;20210;-70
2023/04/01 12:46:42;;;;;;;1.20;1.20;;;12.10;99.90;14.30;99842.00;;;;4989044;28;20225;-70
2023/04/01 12:49:48;;;;;;;1.50;1.40;;;11.90;99.90;14.20;99844.00;;;;5032223;28;20248;-70
2023/04/01 12:52:20;;;;;;;1.10;1.10;;;12.00;99.90;14.20;99845.00;;;;5030784;28;20235;-70
2023/04/01 12:55:08;;;;;;;2.13;2.03;;;11.90;99.90;14.40;99853.00;;;;5041525;28;20189;-69
2023/04/01 12:58:31;;;;;;;1.70;1.70;;;11.90;99.90;14.40;99799.00;;;;5040883;28;20273;-70
2023/04/01 13:01:25;;;;;;;1.30;1.30;;;11.90;99.90;14.50;99856.00;;;;5022959;28;20350;-70
2023/04/01 13:04:12;;;;;;;1.20;1.20;;;11.90;99.90;14.10;99860.00;;;;5043341;28;20183;-70
2023/04/01 13:07:10;;;;;;;1.10;1.10;;;11.90;99.90;14.40;99821.00;;;;5041326;28;20201;-69
2023/04/01 13:10:08;;;;;;;1.10;1.10;;;11.80;99.90;14.60;99868.00;;;;5043393;28;20190;-70
2023/04/01 13:13:12;;;;;;;1.50;1.50;;;11.90;99.90;14.60;99875.00;;;;5042309;28;20317;-70
2023/04/01 13:15:49;;;;;;;1.30;1.30;;;11.90;99.90;14.80;99868.00;;;;5042410;28;20180;-70
2023/04/01 13:18:25;;;;;;;1.60;1.60;;;12.00;99.90;14.80;99873.00;;;;5041189;28;20185;-70
2023/04/01 13:21:10;;;;;;;1.30;1.30;;;12.20;99.90;15.00;99872.00;;;;5041689;28;20211;-70
2023/04/01 13:23:59;;;;;;;1.40;1.40;;;12.10;99.90;13.90;99839.00;;;;5054548;28;20628;-70
2023/04/01 13:26:37;;;;;;;5.50;1.77;;;11.90;99.90;14.50;99857.00;;;;5032810;28;20594;-69
2023/04/01 13:29:20;;;;;;;1.40;1.40;;;11.90;99.90;14.60;99872.00;;;;5031106;28;20203;-69
2023/04/01 13:32:11;;;;;;;1.30;1.30;;;11.90;99.90;14.70;99890.00;;;;5029120;28;20594;-72
2023/04/01 13:35:11;;;;;;;1.30;1.30;;;12.00;99.90;14.70;99902.00;;;;5026070;28;20642;-71
2023/04/01 13:38:12;;;;;;;1.40;1.40;;;11.90;99.90;15.00;99856.00;;;;5048731;28;20191;-71
2023/04/01 13:41:09;;;;;;;1.20;1.20;;;12.00;99.90;15.30;99900.00;;;;5014361;28;20205;-72
2023/04/01 13:43:41;;;;;;;1.30;1.30;;;12.20;99.90;15.30;99902.00;;;;5024608;28;20179;-72
2023/04/01 13:49:12;;;;;;;1.60;1.60;;;12.30;99.90;14.80;99911.00;;;;5032269;28;20202;-72
2023/04/01 13:51:56;;;;;;;1.83;1.83;;;12.30;99.90;14.30;99858.00;;;;5032774;28;20214;-72
2023/04/01 13:55:19;;;;;;;1.50;1.50;;;11.90;99.90;14.80;99910.00;;;;5025076;28;20190;-72
2023/04/01 13:58:22;;;;;;;1.30;1.30;;;12.00;99.90;15.10;99914.00;;;;5042179;28;20235;-72
2023/04/01 14:01:26;;;;;;;1.40;1.40;;;12.10;99.90;15.10;99913.00;;;;5038860;28;20330;-72
2023/04/01 14:04:31;;;;;;;1.40;1.40;;;12.20;99.90;15.20;99920.00;;;;5042779;28;20189;-72
2023/04/01 14:07:09;;;;;;;1.20;1.20;;;12.20;99.90;14.90;99917.00;;;;5041477;28;20636;-72
2023/04/01 14:10:30;;;;;;;1.50;1.50;;;12.20;99.90;14.80;99925.00;;;;5055334;28;20238;-72
2023/04/01 14:13:46;;;;;;;1.40;1.40;;;12.20;99.90;15.00;99927.00;;;;5041200;28;20248;-70
2023/04/01 14:17:09;;;;;;;1.30;1.30;;;12.20;99.90;15.20;99885.00;;;;5041388;28;20649;-75
2023/04/01 14:20:13;;;;;;;1.20;1.20;;;12.40;99.90;15.10;99921.00;;;;5038270;28;20178;-66
2023/04/01 14:22:57;;;;;;;1.40;1.40;;;12.50;99.90;15.10;99902.00;;;;5039526;28;20193;-69
2023/04/01 14:25:39;;;;;;;1.13;1.13;;;12.50;99.90;13.70;99940.00;;;;5040942;28;20184;-64
2023/04/01 14:28:56;;;;;;;1.07;1.07;;;12.10;99.90;14.30;99933.00;;;;5040900;28;20189;-66
2023/04/01 14:32:05;;;;;;;4.43;1.17;;;11.90;99.90;15.10;99941.00;;;;5045981;28;20216;-72
2023/04/01 14:36:03;;;;;;;1.10;1.10;;;12.10;99.90;14.60;99943.00;;;;5038393;28;20200;-68
2023/04/01 14:38:56;;;;;;;1.07;1.07;;;12.10;99.90;15.00;99955.00;;;;5016448;28;20572;-70
2023/04/01 14:41:31;;;;;;;1.20;1.20;;;12.10;99.90;14.80;99961.00;;;;5037919;28;20188;-69
2023/04/01 14:44:54;;;;;;;1.10;1.10;;;12.10;99.90;14.80;99959.00;;;;5025790;28;20234;-66
2023/04/01 14:47:56;;;;;;;1.50;1.50;;;12.20;99.90;15.20;99970.00;;;;5022872;28;20195;-68
2023/04/01 14:51:22;;;;;;;1.30;1.30;;;12.30;99.90;15.10;99966.00;;;;5024589;28;20217;-72
2023/04/01 14:54:31;;;;;;;1.70;1.60;;;12.30;99.90;14.60;99968.00;;;;5026981;28;20184;-68
2023/04/01 14:57:37;;;;;;;1.40;1.40;;;12.20;99.90;14.90;99968.00;;;;5041812;28;20188;-65
2023/04/01 15:00:56;;;;;;;1.33;1.33;;;12.10;99.90;14.70;99966.00;;;;5035746;28;20183;-79
2023/04/01 15:03:30;;;;;;;1.80;1.80;;;12.10;99.90;15.30;99969.00;;;;4999998;28;20207;-74
2023/04/01 15:06:39;;;;;;;2.40;2.30;;;12.20;99.90;14.70;99977.00;;;;5063400;28;20191;-70
2023/04/01 15:09:36;;;;;;;1.20;1.20;;;12.10;99.90;14.50;99982.00;;;;5028803;28;20183;-69
2023/04/01 15:12:13;;;;;;;1.77;1.77;;;12.10;99.90;14.70;99979.00;;;;5032514;28;20199;-69
2023/04/01 15:14:47;;;;;;;3.13;1.50;;;12.10;99.90;14.80;99981.00;;;;5030064;28;20182;-71
2023/04/01 15:17:47;;;;;;;1.70;1.60;;;12.00;99.90;14.20;99983.00;;;;5024728;28;20643;-70
2023/04/01 15:20:29;;;;;;;1.30;1.30;;;11.90;99.90;14.60;99992.00;;;;5031885;28;20190;-71
2023/04/01 15:23:24;;;;;;;1.60;1.60;;;12.00;99.90;14.60;99996.00;;;;5033700;28;20666;-72
2023/04/01 15:26:28;;;;;;;1.40;1.40;;;11.90;99.90;13.50;99990.00;;;;5036178;28;20650;-71
2023/04/01 15:29:06;;;;;;;1.20;1.20;;;11.70;99.90;13.90;99989.00;;;;5026999;28;20213;-70
2023/04/01 15:32:25;;;;;;;2.57;2.47;;;11.50;99.90;13.70;99994.00;;;;5028138;28;20629;-70
2023/04/01 15:35:09;;;;;;;1.30;1.30;;;11.40;99.90;14.30;99993.00;;;;5039018;28;20211;-70
2023/04/01 15:38:18;;;;;;;1.83;1.77;;;11.50;99.90;14.50;100009.00;;;;5051202;28;20645;-70
2023/04/01 15:41:06;;;;;;;1.40;1.40;;;11.70;99.90;13.90;100008.00;;;;5035073;28;20210;-70
2023/04/01 15:43:52;;;;;;;1.10;1.10;;;11.50;99.90;13.80;99987.00;;;;5033819;28;20179;-70
2023/04/01 15:46:39;;;;;;;1.20;1.20;;;11.40;99.90;13.80;100005.00;;;;5034046;28;20199;-70
2023/04/01 15:49:11;;;;;;;1.43;1.43;;;11.40;99.90;13.90;100008.00;;;;5030832;28;20199;-70
2023/04/01 15:51:59;;;;;;;1.60;1.60;;;11.40;99.90;13.70;100016.00;;;;5035351;28;20289;-70
2023/04/01 15:55:00;;;;;;;1.10;1.10;;;11.30;99.90;13.90;100016.00;;;;5046904;28;20555;-70
2023/04/01 15:58:03;;;;;;;1.30;1.30;;;11.40;99.90;14.00;100016.00;;;;5023244;28;20641;-71
2023/04/01 16:01:19;;;;;;;1.40;1.40;;;11.30;99.90;14.10;100028.00;;;;5033343;28;20191;-71
2023/04/01 16:04:20;;;;;;;1.37;1.37;;;11.40;99.90;14.10;100021.00;;;;5032289;28;20189;-71
2023/04/01 16:07:03;;;;;;;1.30;1.30;;;11.40;99.90;14.30;100031.00;;;;5033375;28;20270;-71
2023/04/01 16:10:16;;;;;;;1.33;1.33;;;11.50;99.90;13.90;100034.00;;;;5033727;28;20677;-71
2023/04/01 16:13:15;;;;;;;1.40;1.40;;;11.50;99.90;14.40;99999.00;;;;5031142;28;20216;-72
2023/04/01 16:16:17;;;;;;;1.40;1.40;;;11.60;99.90;14.40;100039.00;;;;5031752;28;20208;-72
2023/04/01 16:19:30;;;;;;;1.40;1.40;;;11.60;99.90;14.00;100038.00;;;;5032871;28;20216;-69
2023/04/01 16:22:27;;;;;;;1.40;1.40;;;11.40;99.90;14.30;100042.00;;;;5034864;28;20188;-72
2023/04/01 16:25:31;;;;;;;1.80;1.50;;;11.70;99.90;14.60;100046.00;;;;5032595;28;20291;-72
2023/04/01 16:28:35;;;;;;;1.43;1.43;;;11.60;99.90;14.20;100050.00;;;;5033592;28;20553;-72
2023/04/01 16:31:30;;;;;;;2.10;2.00;;;11.60;99.90;13.90;100057.00;;;;5012366;28;20325;-72
2023/04/01 16:34:20;;;;;;;1.20;1.20;;;11.40;99.90;13.90;100015.00;;;;5030613;28;20193;-72
2023/04/01 16:37:20;;;;;;;1.27;1.27;;;11.40;99.90;14.30;100054.00;;;;5044378;28;20552;-72
2023/04/01 16:40:20;;;;;;;1.37;1.37;;;11.60;99.90;14.40;100067.00;;;;5025942;28;20187;-72
2023/04/01 16:44:03;;;;;;;1.70;1.70;;;11.60;99.90;14.20;100061.00;;;;5026150;28;20200;-72
2023/04/01 16:47:06;;;;;;;1.47;1.47;;;11.70;99.90;14.60;100069.00;;;;5014312;28;20293;-72
2023/04/01 16:49:38;;;;;;;1.30;1.30;;;11.60;99.90;14.10;100070.00;;;;5027732;28;20256;-72
2023/04/01 16:52:29;;;;;;;1.30;1.30;;;11.60;99.90;14.10;100085.00;;;;5033249;28;20254;-72
2023/04/01 16:55:21;;;;;;;1.77;1.77;;;11.60;99.90;14.30;100083.00;;;;5032261;28;20598;-73
2023/04/01 16:58:01;;;;;;;1.20;1.20;;;11.50;99.90;14.10;100084.00;;;;5033032;28;20193;-72
2023/04/01 17:00:39;;;;;;;1.60;1.60;;;11.50;99.90;14.10;100094.00;;;;5032984;28;20224;-72
2023/04/01 17:03:11;;;;;;;1.37;1.37;;;11.50;99.90;14.10;100058.00;;;;5032724;28;20258;-73
2023/04/01 17:06:02;;;;;;;1.40;1.40;;;11.50;99.90;13.80;100079.00;;;;5048737;28;20221;-71
2023/04/01 17:09:06;;;;;;;2.07;1.97;;;11.50;99.90;14.30;100108.00;;;;5033971;28;20286;-72
2023/04/01 17:12:07;;;;;;;1.60;1.60;;;11.50;99.90;14.40;100068.00;;;;5032806;28;20206;-72
2023/04/01 17:15:10;;;;;;;1.20;1.20;;;11.60;99.90;14.30;100117.00;;;;5028824;28;20194;-72
2023/04/01 17:17:39;;;;;;;1.30;1.30;;;11.50;99.90;13.90;100114.00;;;;5031535;28;20682;-72
2023/04/01 17:20:39;;;;;;;2.40;2.30;;;11.50;99.90;14.00;100109.00;;;;5047205;28;20230;-72
2023/04/01 17:23:23;;;;;;;1.50;1.50;;;11.40;99.90;14.20;100118.00;;;;5046315;28;20208;-72
2023/04/01 17:26:10;;;;;;;1.53;1.43;;;11.50;99.90;14.00;100120.00;;;;5027593;28;20520;-72
2023/04/01 17:29:07;;;;;;;1.10;1.10;;;11.40;99.90;13.30;100123.00;;;;5033057;28;20187;-72
2023/04/01 17:32:02;;;;;;;1.20;1.20;;;11.10;99.90;13.90;100136.00;;;;5032355;28;20220;-72
2023/04/01 17:34:45;;;;;;;1.20;1.20;;;11.20;99.90;13.70;100142.00;;;;5025292;28;20221;-73
2023/04/01 17:37:34;;;;;;;1.30;1.30;;;11.20;99.90;14.00;100155.00;;;;5033604;28;20179;-73
2023/04/01 17:40:43;;;;;;;1.30;1.30;;;11.20;99.90;13.80;100147.00;;;;5020197;28;20257;-72
2023/04/01 17:43:37;;;;;;;1.30;1.30;;;11.20;99.90;13.90;100152.00;;;;5030803;28;20200;-72
2023/04/01 17:46:47;;;;;;;1.20;1.20;;;11.10;99.90;13.60;100156.00;;;;5033162;28;20192;-72
2023/04/01 17:49:50;;;;;;;1.77;1.67;;;11.10;99.90;13.30;100162.00;;;;5028514;28;20188;-73
2023/04/01 17:52:48;;;;;;;1.57;1.57;;;11.10;99.90;13.30;100167.00;;;;5022641;28;20289;-72
2023/04/01 17:55:39;;;;;;;1.43;1.33;;;11.00;99.90;13.50;100174.00;;;;5026492;28;20210;-72
2023/04/01 17:58:37;;;;;;;2.03;1.93;;;11.00;99.90;13.20;100187.00;;;;5023309;28;20176;-72
2023/04/01 18:01:31;;;;;;;1.00;1.00;;;11.00;99.90;13.00;100147.00;;;;5027619;28;20235;-72
2023/04/01 18:04:08;;;;;;;1.03;1.03;;;10.80;99.90;13.20;100194.00;;;;5033569;28;20307;-72
2023/04/01 18:06:47;;;;;;;1.20;1.20;;;10.80;99.90;12.60;100188.00;;;;5033288;28;20193;-72
2023/04/01 18:09:50;;;;;;;1.83;1.73;;;10.70;99.90;13.00;100196.00;;;;5031023;28;20216;-73
2023/04/01 18:13:00;;;;;;;1.17;1.17;;;10.60;99.90;13.10;100209.00;;;;5029454;28;20202;-73
2023/04/01 18:15:53;;;;;;;1.30;1.30;;;10.70;99.90;13.10;100213.00;;;;5008845;28;20246;-73
2023/04/01 18:18:53;;;;;;;2.10;1.63;;;10.70;99.90;13.20;100221.00;;;;5024436;28;20264;-73
2023/04/01 18:22:16;;;;;;;2.77;2.63;;;10.70;99.90;13.00;100167.00;;;;5030041;28;20535;-73
2023/04/01 18:25:02;;;;;;;1.20;1.20;;;10.70;99.90;13.30;100220.00;;;;5009029;28;20191;-73
2023/04/01 18:27:40;;;;;;;2.17;2.07;;;10.70;99.90;12.20;100207.00;;;;5028162;28;20348;-73
2023/04/01 18:30:27;;;;;;;1.17;1.17;;;10.50;99.90;13.00;100184.00;;;;5033866;28;20234;-73
2023/04/01 18:33:07;;;;;;;1.10;1.10;;;10.60;99.90;13.70;100195.00;;;;5029174;28;20220;-73
2023/04/01 18:36:24;;;;;;;1.10;1.10;;;10.80;99.90;13.20;100235.00;;;;5031898;28;20647;-73
2023/04/01 18:39:32;;;;;;;1.10;1.10;;;10.90;99.90;12.90;100250.00;;;;5020517;28;20206;-72
2023/04/01 18:42:58;;;;;;;1.20;1.20;;;10.70;99.90;12.70;100239.00;;;;5038051;28;20239;-73
2023/04/01 18:45:33;;;;;;;1.10;1.10;;;10.60;99.90;13.20;100213.00;;;;5002329;28;20193;-72
2023/04/01 18:48:43;;;;;;;1.87;1.87;;;10.60;99.90;13.60;100257.00;;;;5030371;28;20200;-73
2023/04/01 18:51:55;;;;;;;1.10;1.10;;;10.80;99.90;13.50;100269.00;;;;5023771;28;20183;-73
2023/04/01 18:55:02;;;;;;;1.30;1.30;;;10.80;99.90;13.30;100270.00;;;;5031457;28;20189;-73
2023/04/01 18:57:58;;;;;;;2.17;2.07;;;10.80;99.90;13.00;100268.00;;;;5031270;28;20195;-73
2023/04/01 19:01:00;;;;;;;1.30;1.30;;;10.70;99.90;12.80;100286.00;;;;5035267;28;20188;-72
2023/04/01 19:03:43;;;;;;;1.30;1.30;;;10.80;99.90;13.40;100279.00;;;;5023575;28;20671;-73
2023/04/01 19:06:34;;;;;;;1.73;1.73;;;10.80;99.90;13.50;100294.00;;;;5035260;28;20183;-72
2023/04/01 19:09:31;;;;;;;1.53;1.53;;;10.80;99.90;13.20;100253.00;;;;5035843;28;20637;-72
2023/04/01 19:12:33;;;;;;;1.30;1.30;;;10.90;99.90;13.30;100295.00;;;;5044015;28;20204;-72
2023/04/01 19:15:29;;;;;;;2.37;2.27;;;10.80;99.90;13.50;100305.00;;;;5049209;28;20193;-72
2023/04/01 19:18:44;;;;;;;2.73;2.60;;;10.90;99.90;13.40;100304.00;;;;5032275;28;20174;-73
2023/04/01 19:21:53;;;;;;;1.20;1.20;;;10.80;99.90;13.50;100302.00;;;;5036666;28;20181;-73
2023/04/01 19:25:03;;;;;;;1.57;1.57;;;10.80;99.90;12.80;100310.00;;;;5030414;28;20639;-73
2023/04/01 19:27:42;;;;;;;1.30;1.30;;;10.80;99.90;13.60;100315.00;;;;5036237;28;20193;-73
2023/04/01 19:30:42;;;;;;;1.40;1.40;;;10.90;99.90;13.40;100333.00;;;;5034853;28;20195;-72
2023/04/01 19:33:59;;;;;;;1.20;1.20;;;10.90;99.90;12.90;100335.00;;;;5034522;28;20302;-72
2023/04/01 19:36:36;;;;;;;1.50;1.40;;;10.70;99.90;13.30;100335.00;;;;5031819;28;20179;-72
2023/04/01 19:39:26;;;;;;;1.80;1.80;;;10.70;99.90;12.90;100339.00;;;;5035681;28;20638;-72
2023/04/01 19:42:16;;;;;;;1.20;1.20;;;10.90;99.90;13.10;100344.00;;;;5022950;28;20606;-72
2023/04/01 19:45:08;;;;;;;1.40;1.40;;;10.70;99.90;13.90;100342.00;;;;5033912;28;20190;-71
2023/04/01 19:48:26;;;;;;;1.80;1.80;;;11.00;99.90;13.20;100357.00;;;;5031019;28;20618;-71
2023/04/01 19:51:11;;;;;;;1.30;1.30;;;11.00;99.90;13.30;100306.00;;;;5035565;28;20192;-71
2023/04/01 19:53:58;;;;;;;1.50;1.50;;;10.80;99.90;13.30;100359.00;;;;5034646;28;20206;-71
2023/04/01 19:57:02;;;;;;;1.40;1.40;;;10.90;99.90;12.70;100362.00;;;;5032243;28;20693;-72
2023/04/01 19:59:39;;;;;;;1.20;1.20;;;10.80;99.90;13.60;100363.00;;;;5038976;28;20189;-71
2023/04/01 20:02:08;;;;;;;1.97;1.87;;;10.90;99.90;13.40;100376.00;;;;5050906;28;20241;-72
2023/04/01 20:04:34;;;;;;;1.40;1.40;;;10.80;99.90;13.40;100334.00;;;;5035084;28;20201;-72
2023/04/01 20:07:21;;;;;;;1.57;1.53;;;10.90;99.90;13.20;100383.00;;;;5035052;28;20189;-72
2023/04/01 20:10:25;;;;;;;2.47;2.33;;;10.80;99.90;13.30;100389.00;;;;5035427;28;20237;-72
2023/04/01 20:13:27;;;;;;;1.80;1.70;;;10.80;99.90;13.70;100390.00;;;;5022977;28;20200;-71
2023/04/01 20:16:12;;;;;;;1.77;1.67;;;11.00;99.90;13.30;100394.00;;;;5033905;28;20185;-72
2023/04/01 20:18:51;;;;;;;2.87;2.63;;;11.10;99.90;13.60;100403.00;;;;5024489;28;20190;-72
2023/04/01 20:21:27;;;;;;;2.03;1.93;;;11.00;99.90;13.60;100407.00;;;;5032985;28;20194;-72